sensor_id;sensor_type;location;lat;lon;timestamp;pressure;altitude;pressure_sealevel;temperature;humidity
42859;BME280;28505;56.970;40.998;2022-09-27T00:04:18;99504.59;;;8.83;100.00
42859;BME280;28505;56.970;40.998;2022-09-27T00:09:40;99475.25;;;8.68;100.00
42859;BME280;28505;56.970;40.998;2022-09-27T00:15:04;99511.56;;;8.84;100.00
42859;BME280;28505;56.970;40.998;2022-09-27T00:20:27;99505.25;;;8.75;100.00
42859;BME280;28505;56.970;40.998;2022-09-27T00:25:55;99473.22;;;8.60;100.00
42859;BME280;28505;56.970;40.998;2022-09-27T00:31:26;99498.34;;;8.69;100.00
42859;BME280;28505;56.970;40.998;2022-09-27T00:36:52;99497.28;;;8.70;100.00
42859;BME280;28505;56.970;40.998;2022-09-27T00:42:16;99494.72;;;8.60;100.00
42859;BME280;28505;56.970;40.998;2022-09-27T00:47:49;99496.91;;;8.58;100.00
42859;BME280;28505;56.970;40.998;2022-09-27T00:53:28;99561.38;;;8.96;100.00
42859;BME280;28505;56.970;40.998;2022-09-27T00:59:25;99580.09;;;9.06;100.00
42859;BME280;28505;56.970;40.998;2022-09-27T01:04:52;99540.19;;;8.75;100.00
42859;BME280;28505;56.970;40.998;2022-09-27T01:10:17;99554.50;;;8.89;100.00
42859;BME280;28505;56.970;40.998;2022-09-27T01:15:48;99557.19;;;8.89;100.00
42859;BME280;28505;56.970;40.998;2022-09-27T01:38:25;99558.50;;;8.73;100.00
42859;BME280;28505;56.970;40.998;2022-09-27T01:44:08;99600.06;;;9.00;100.00
42859;BME280;28505;56.970;40.998;2022-09-27T01:49:56;99618.00;;;9.04;100.00
42859;BME280;28505;56.970;40.998;2022-09-27T01:55:28;99609.19;;;8.99;100.00
42859;BME280;28505;56.970;40.998;2022-09-27T02:01:19;99609.50;;;8.97;100.00
42859;BME280;28505;56.970;40.998;2022-09-27T02:06:46;99619.47;;;8.97;100.00
42859;BME280;28505;56.970;40.998;2022-09-27T02:12:19;99622.16;;;8.97;100.00
42859;BME280;28505;56.970;40.998;2022-09-27T02:17:58;99630.44;;;9.00;100.00
42859;BME280;28505;56.970;40.998;2022-09-27T02:29:09;99631.28;;;8.96;100.00
42859;BME280;28505;56.970;40.998;2022-09-27T02:34:39;99624.91;;;8.91;100.00
42859;BME280;28505;56.970;40.998;2022-09-27T02:40:02;99629.19;;;8.93;100.00
42859;BME280;28505;56.970;40.998;2022-09-27T02:45:30;99621.72;;;8.89;100.00
42859;BME280;28505;56.970;40.998;2022-09-27T03:08:40;99628.47;;;8.87;100.00
42859;BME280;28505;56.970;40.998;2022-09-27T03:14:02;99643.50;;;8.88;100.00
42859;BME280;28505;56.970;40.998;2022-09-27T03:19:39;99637.38;;;8.82;100.00
42859;BME280;28505;56.970;40.998;2022-09-27T03:25:26;99649.19;;;8.86;100.00
42859;BME280;28505;56.970;40.998;2022-09-27T03:30:48;99651.34;;;8.84;100.00
42859;BME280;28505;56.970;40.998;2022-09-27T03:36:31;99650.75;;;8.87;100.00
42859;BME280;28505;56.970;40.998;2022-09-27T03:41:54;99655.00;;;8.94;100.00
42859;BME280;28505;56.970;40.998;2022-09-27T03:47:16;99617.16;;;8.66;100.00
42859;BME280;28505;56.970;40.998;2022-09-27T03:52:39;99604.38;;;8.58;100.00
42859;BME280;28505;56.970;40.998;2022-09-27T03:58:03;99625.19;;;8.71;100.00
42859;BME280;28505;56.970;40.998;2022-09-27T04:03:27;99630.19;;;8.78;100.00
42859;BME280;28505;56.970;40.998;2022-09-27T04:09:08;99607.56;;;8.60;100.00
42859;BME280;28505;56.970;40.998;2022-09-27T04:14:47;99666.19;;;9.01;100.00
42859;BME280;28505;56.970;40.998;2022-09-27T04:20:36;99645.44;;;8.82;100.00
42859;BME280;28505;56.970;40.998;2022-09-27T04:26:06;99616.50;;;8.55;100.00
42859;BME280;28505;56.970;40.998;2022-09-27T04:31:47;99633.81;;;8.68;100.00
42859;BME280;28505;56.970;40.998;2022-09-27T04:37:22;99685.53;;;9.03;100.00
42859;BME280;28505;56.970;40.998;2022-09-27T04:42:49;99649.59;;;8.75;100.00
42859;BME280;28505;56.970;40.998;2022-09-27T04:48:11;99681.06;;;8.93;100.00
42859;BME280;28505;56.970;40.998;2022-09-27T04:53:34;99695.69;;;9.06;100.00
42859;BME280;28505;56.970;40.998;2022-09-27T04:58:56;99695.41;;;9.07;100.00
42859;BME280;28505;56.970;40.998;2022-09-27T05:04:19;99689.22;;;9.07;100.00
42859;BME280;28505;56.970;40.998;2022-09-27T05:09:44;99689.97;;;9.12;100.00
42859;BME280;28505;56.970;40.998;2022-09-27T05:15:07;99686.41;;;9.17;100.00
42859;BME280;28505;56.970;40.998;2022-09-27T05:20:48;99673.47;;;9.19;100.00
42859;BME280;28505;56.970;40.998;2022-09-27T05:26:15;99685.25;;;9.23;100.00
42859;BME280;28505;56.970;40.998;2022-09-27T05:31:37;99701.81;;;9.30;100.00
42859;BME280;28505;56.970;40.998;2022-09-27T05:36:59;99710.69;;;9.31;100.00
42859;BME280;28505;56.970;40.998;2022-09-27T05:42:25;99714.47;;;9.30;100.00
42859;BME280;28505;56.970;40.998;2022-09-27T05:47:57;99722.75;;;9.33;100.00
42859;BME280;28505;56.970;40.998;2022-09-27T05:53:20;99724.47;;;9.24;100.00
42859;BME280;28505;56.970;40.998;2022-09-27T05:58:45;99715.41;;;9.20;100.00
42859;BME280;28505;56.970;40.998;2022-09-27T06:04:10;99731.44;;;9.25;100.00
42859;BME280;28505;56.970;40.998;2022-09-27T06:09:59;99680.72;;;9.00;100.00
42859;BME280;28505;56.970;40.998;2022-09-27T06:15:23;99730.88;;;9.28;100.00
42859;BME280;28505;56.970;40.998;2022-09-27T06:20:46;99740.00;;;9.32;100.00
42859;BME280;28505;56.970;40.998;2022-09-27T06:26:12;99722.91;;;9.23;100.00
42859;BME280;28505;56.970;40.998;2022-09-27T06:32:01;99730.31;;;9.31;100.00
42859;BME280;28505;56.970;40.998;2022-09-27T06:37:49;99704.13;;;9.18;100.00
42859;BME280;28505;56.970;40.998;2022-09-27T06:43:14;99726.25;;;9.34;100.00
42859;BME280;28505;56.970;40.998;2022-09-27T06:48:55;99748.34;;;9.50;100.00
42859;BME280;28505;56.970;40.998;2022-09-27T06:54:19;99744.88;;;9.49;100.00
42859;BME280;28505;56.970;40.998;2022-09-27T06:59:41;99746.19;;;9.52;100.00
42859;BME280;28505;56.970;40.998;2022-09-27T07:05:40;99741.81;;;9.56;100.00
42859;BME280;28505;56.970;40.998;2022-09-27T07:11:21;99743.81;;;9.64;100.00
42859;BME280;28505;56.970;40.998;2022-09-27T07:16:47;99736.63;;;9.78;100.00
42859;BME280;28505;56.970;40.998;2022-09-27T07:22:11;99744.91;;;9.82;100.00
42859;BME280;28505;56.970;40.998;2022-09-27T07:27:35;99740.25;;;9.88;100.00
42859;BME280;28505;56.970;40.998;2022-09-27T07:33:03;99760.94;;;10.06;100.00
42859;BME280;28505;56.970;40.998;2022-09-27T07:38:25;99774.34;;;10.11;100.00
42859;BME280;28505;56.970;40.998;2022-09-27T07:43:49;99783.28;;;10.06;100.00
42859;BME280;28505;56.970;40.998;2022-09-27T07:49:13;99776.75;;;9.94;100.00
42859;BME280;28505;56.970;40.998;2022-09-27T07:55:04;99784.78;;;9.99;100.00
42859;BME280;28505;56.970;40.998;2022-09-27T08:00:42;99800.56;;;10.05;100.00
42859;BME280;28505;56.970;40.998;2022-09-27T08:06:08;99780.50;;;9.98;100.00
42859;BME280;28505;56.970;40.998;2022-09-27T08:11:30;99788.47;;;10.03;100.00
42859;BME280;28505;56.970;40.998;2022-09-27T08:16:54;99804.47;;;10.13;100.00
42859;BME280;28505;56.970;40.998;2022-09-27T08:22:22;99797.13;;;10.19;100.00
42859;BME280;28505;56.970;40.998;2022-09-27T08:27:56;99792.53;;;10.19;100.00
42859;BME280;28505;56.970;40.998;2022-09-27T08:33:33;99799.66;;;10.29;100.00
42859;BME280;28505;56.970;40.998;2022-09-27T08:39:03;99785.03;;;10.35;100.00
42859;BME280;28505;56.970;40.998;2022-09-27T08:45:00;99767.47;;;10.38;100.00
42859;BME280;28505;56.970;40.998;2022-09-27T08:50:31;99806.84;;;10.66;100.00
42859;BME280;28505;56.970;40.998;2022-09-27T08:56:07;99809.84;;;10.78;100.00
42859;BME280;28505;56.970;40.998;2022-09-27T09:01:36;99806.56;;;10.82;100.00
42859;BME280;28505;56.970;40.998;2022-09-27T10:12:37;99754.81;;;11.21;100.00
42859;BME280;28505;56.970;40.998;2022-09-27T10:19:02;99825.56;;;11.82;100.00
42859;BME280;28505;56.970;40.998;2022-09-27T10:25:14;99784.41;;;11.62;100.00
42859;BME280;28505;56.970;40.998;2022-09-27T10:31:19;99743.84;;;11.54;100.00
42859;BME280;28505;56.970;40.998;2022-09-27T10:43:01;99816.94;;;12.07;100.00
42859;BME280;28505;56.970;40.998;2022-09-27T10:48:42;99806.97;;;11.94;100.00
42859;BME280;28505;56.970;40.998;2022-09-27T10:54:21;99810.16;;;11.82;100.00
42859;BME280;28505;56.970;40.998;2022-09-27T10:59:54;99815.38;;;11.79;100.00
42859;BME280;28505;56.970;40.998;2022-09-27T11:16:58;99832.22;;;11.62;100.00
42859;BME280;28505;56.970;40.998;2022-09-27T11:22:41;99834.44;;;11.46;100.00
42859;BME280;28505;56.970;40.998;2022-09-27T11:44:56;99816.66;;;11.04;100.00
42859;BME280;28505;56.970;40.998;2022-09-27T12:15:02;99851.25;;;11.15;100.00
42859;BME280;28505;56.970;40.998;2022-09-27T12:20:30;99850.81;;;10.94;100.00
42859;BME280;28505;56.970;40.998;2022-09-27T12:25:59;99838.84;;;10.87;100.00
42859;BME280;28505;56.970;40.998;2022-09-27T12:31:34;99812.53;;;10.65;100.00
42859;BME280;28505;56.970;40.998;2022-09-27T12:37:03;99817.94;;;10.65;100.00
42859;BME280;28505;56.970;40.998;2022-09-27T12:42:40;99852.78;;;10.75;100.00
42859;BME280;28505;56.970;40.998;2022-09-27T13:17:02;99839.06;;;10.44;100.00
42859;BME280;28505;56.970;40.998;2022-09-27T13:22:38;99821.16;;;10.34;100.00
42859;BME280;28505;56.970;40.998;2022-09-27T13:46:19;99808.41;;;10.21;100.00
42859;BME280;28505;56.970;40.998;2022-09-27T13:51:54;99788.09;;;10.09;100.00
42859;BME280;28505;56.970;40.998;2022-09-27T14:08:52;99761.44;;;9.94;100.00
42859;BME280;28505;56.970;40.998;2022-09-27T14:14:26;99769.25;;;9.91;100.00
42859;BME280;28505;56.970;40.998;2022-09-27T14:20:43;99766.28;;;9.92;100.00
42859;BME280;28505;56.970;40.998;2022-09-27T14:26:26;99749.28;;;9.78;100.00
42859;BME280;28505;56.970;40.998;2022-09-27T14:32:14;99754.09;;;9.62;100.00
42859;BME280;28505;56.970;40.998;2022-09-27T14:38:00;99775.31;;;9.64;100.00
42859;BME280;28505;56.970;40.998;2022-09-27T14:43:45;99775.41;;;9.58;100.00
42859;BME280;28505;56.970;40.998;2022-09-27T14:49:22;99788.41;;;9.51;100.00
42859;BME280;28505;56.970;40.998;2022-09-27T14:54:58;99760.03;;;9.21;100.00
42859;BME280;28505;56.970;40.998;2022-09-27T15:01:30;99809.84;;;9.37;100.00
42859;BME280;28505;56.970;40.998;2022-09-27T15:07:24;99771.91;;;8.96;100.00
42859;BME280;28505;56.970;40.998;2022-09-27T15:13:17;99762.31;;;8.90;100.00
42859;BME280;28505;56.970;40.998;2022-09-27T15:19:26;99812.28;;;9.15;100.00
42859;BME280;28505;56.970;40.998;2022-09-27T15:25:06;99798.91;;;9.10;100.00
42859;BME280;28505;56.970;40.998;2022-09-27T15:30:46;99780.56;;;8.93;100.00
42859;BME280;28505;56.970;40.998;2022-09-27T15:36:13;99747.56;;;8.63;100.00
42859;BME280;28505;56.970;40.998;2022-09-27T15:42:12;99818.34;;;9.02;100.00
42859;BME280;28505;56.970;40.998;2022-09-27T15:47:39;99768.56;;;8.56;100.00
42859;BME280;28505;56.970;40.998;2022-09-27T15:53:03;99752.34;;;8.37;100.00
42859;BME280;28505;56.970;40.998;2022-09-27T15:58:28;99799.44;;;8.59;100.00
42859;BME280;28505;56.970;40.998;2022-09-27T16:03:50;99759.91;;;8.30;100.00
42859;BME280;28505;56.970;40.998;2022-09-27T16:09:15;99789.13;;;8.42;100.00
42859;BME280;28505;56.970;40.998;2022-09-27T16:14:38;99810.28;;;8.49;100.00
42859;BME280;28505;56.970;40.998;2022-09-27T16:20:01;99760.88;;;8.15;100.00
42859;BME280;28505;56.970;40.998;2022-09-27T16:25:25;99763.88;;;8.09;100.00
42859;BME280;28505;56.970;40.998;2022-09-27T16:30:47;99750.00;;;7.96;100.00
42859;BME280;28505;56.970;40.998;2022-09-27T16:36:10;99769.28;;;8.04;100.00
42859;BME280;28505;56.970;40.998;2022-09-27T16:41:37;99798.41;;;8.20;100.00
42859;BME280;28505;56.970;40.998;2022-09-27T16:47:02;99799.25;;;8.16;100.00
42859;BME280;28505;56.970;40.998;2022-09-27T16:52:24;99798.66;;;8.24;100.00
42859;BME280;28505;56.970;40.998;2022-09-27T16:57:47;99799.16;;;8.26;100.00
42859;BME280;28505;56.970;40.998;2022-09-27T17:03:10;99778.31;;;8.13;100.00
42859;BME280;28505;56.970;40.998;2022-09-27T17:08:32;99798.47;;;8.10;100.00
42859;BME280;28505;56.970;40.998;2022-09-27T17:13:54;99802.03;;;8.01;100.00
42859;BME280;28505;56.970;40.998;2022-09-27T17:19:16;99782.06;;;7.83;100.00
42859;BME280;28505;56.970;40.998;2022-09-27T17:24:39;99786.88;;;7.81;100.00
42859;BME280;28505;56.970;40.998;2022-09-27T17:30:01;99806.47;;;7.81;100.00
42859;BME280;28505;56.970;40.998;2022-09-27T17:35:23;99790.16;;;7.72;100.00
42859;BME280;28505;56.970;40.998;2022-09-27T17:40:45;99793.41;;;7.69;100.00
42859;BME280;28505;56.970;40.998;2022-09-27T17:46:09;99786.72;;;7.62;100.00
42859;BME280;28505;56.970;40.998;2022-09-27T17:51:35;99713.56;;;7.07;100.00
42859;BME280;28505;56.970;40.998;2022-09-27T17:56:57;99709.56;;;6.99;100.00
42859;BME280;28505;56.970;40.998;2022-09-27T18:02:20;99767.28;;;7.41;100.00
42859;BME280;28505;56.970;40.998;2022-09-27T18:07:43;99782.44;;;7.61;100.00
42859;BME280;28505;56.970;40.998;2022-09-27T18:13:06;99751.69;;;7.48;100.00
42859;BME280;28505;56.970;40.998;2022-09-27T18:18:31;99705.41;;;7.27;100.00
42859;BME280;28505;56.970;40.998;2022-09-27T18:23:56;99726.81;;;7.37;100.00
42859;BME280;28505;56.970;40.998;2022-09-27T18:29:19;99766.09;;;7.62;100.00
42859;BME280;28505;56.970;40.998;2022-09-27T18:34:47;99720.41;;;7.33;100.00
42859;BME280;28505;56.970;40.998;2022-09-27T18:40:10;99715.59;;;7.30;100.00
42859;BME280;28505;56.970;40.998;2022-09-27T18:45:39;99663.75;;;7.00;100.00
42859;BME280;28505;56.970;40.998;2022-09-27T18:51:23;99713.16;;;7.28;100.00
42859;BME280;28505;56.970;40.998;2022-09-27T18:56:54;99711.03;;;7.31;100.00
42859;BME280;28505;56.970;40.998;2022-09-27T19:02:23;99655.19;;;6.98;100.00
42859;BME280;28505;56.970;40.998;2022-09-27T19:07:52;99639.09;;;6.98;100.00
42859;BME280;28505;56.970;40.998;2022-09-27T19:13:22;99669.53;;;7.18;100.00
42859;BME280;28505;56.970;40.998;2022-09-27T19:19:10;99704.75;;;7.45;100.00
42859;BME280;28505;56.970;40.998;2022-09-27T19:25:11;99630.50;;;7.01;100.00
42859;BME280;28505;56.970;40.998;2022-09-27T19:30:56;99697.53;;;7.41;100.00
42859;BME280;28505;56.970;40.998;2022-09-27T19:36:49;99648.41;;;7.11;100.00
42859;BME280;28505;56.970;40.998;2022-09-27T19:42:32;99688.16;;;7.38;100.00
42859;BME280;28505;56.970;40.998;2022-09-27T19:48:13;99675.38;;;7.25;100.00
42859;BME280;28505;56.970;40.998;2022-09-27T19:53:41;99611.31;;;6.84;100.00
42859;BME280;28505;56.970;40.998;2022-09-27T19:59:21;99664.72;;;7.15;100.00
42859;BME280;28505;56.970;40.998;2022-09-27T20:04:48;99645.75;;;7.06;100.00
42859;BME280;28505;56.970;40.998;2022-09-27T20:10:19;99647.91;;;7.04;100.00
42859;BME280;28505;56.970;40.998;2022-09-27T20:15:48;99603.09;;;6.70;100.00
42859;BME280;28505;56.970;40.998;2022-09-27T20:21:26;99603.88;;;6.71;100.00
42859;BME280;28505;56.970;40.998;2022-09-27T20:26:49;99616.16;;;6.82;100.00
42859;BME280;28505;56.970;40.998;2022-09-27T20:32:11;99588.63;;;6.66;100.00
42859;BME280;28505;56.970;40.998;2022-09-27T20:37:48;99651.09;;;7.06;100.00
42859;BME280;28505;56.970;40.998;2022-09-27T20:43:14;99621.72;;;6.91;100.00
42859;BME280;28505;56.970;40.998;2022-09-27T20:48:43;99666.59;;;7.19;100.00
42859;BME280;28505;56.970;40.998;2022-09-27T20:54:09;99591.00;;;6.73;100.00
42859;BME280;28505;56.970;40.998;2022-09-27T20:59:35;99581.88;;;6.79;100.00
42859;BME280;28505;56.970;40.998;2022-09-27T21:05:03;99585.00;;;6.91;100.00
42859;BME280;28505;56.970;40.998;2022-09-27T21:10:34;99588.41;;;7.02;100.00
42859;BME280;28505;56.970;40.998;2022-09-27T21:16:03;99627.06;;;7.35;100.00
42859;BME280;28505;56.970;40.998;2022-09-27T21:21:27;99575.50;;;7.09;100.00
42859;BME280;28505;56.970;40.998;2022-09-27T21:26:52;99595.19;;;7.28;100.00
42859;BME280;28505;56.970;40.998;2022-09-27T21:32:17;99605.84;;;7.39;100.00
42859;BME280;28505;56.970;40.998;2022-09-27T21:37:40;99597.06;;;7.28;100.00
42859;BME280;28505;56.970;40.998;2022-09-27T21:43:04;99557.03;;;7.08;100.00
42859;BME280;28505;56.970;40.998;2022-09-27T21:48:25;99637.56;;;7.66;100.00
42859;BME280;28505;56.970;40.998;2022-09-27T21:53:52;99629.75;;;7.69;100.00
42859;BME280;28505;56.970;40.998;2022-09-27T21:59:15;99600.09;;;7.56;100.00
42859;BME280;28505;56.970;40.998;2022-09-27T22:04:38;99606.16;;;7.66;100.00
42859;BME280;28505;56.970;40.998;2022-09-27T22:10:00;99604.78;;;7.69;100.00
42859;BME280;28505;56.970;40.998;2022-09-27T22:15:22;99603.25;;;7.63;100.00
42859;BME280;28505;56.970;40.998;2022-09-27T22:20:44;99599.94;;;7.71;100.00
42859;BME280;28505;56.970;40.998;2022-09-27T22:26:12;99589.72;;;7.73;100.00
42859;BME280;28505;56.970;40.998;2022-09-27T22:31:35;99580.59;;;7.74;100.00
42859;BME280;28505;56.970;40.998;2022-09-27T22:36:58;99564.47;;;7.74;100.00
42859;BME280;28505;56.970;40.998;2022-09-27T22:42:21;99553.25;;;7.72;100.00
42859;BME280;28505;56.970;40.998;2022-09-27T22:47:43;99508.16;;;7.45;100.00
42859;BME280;28505;56.970;40.998;2022-09-27T22:53:06;99459.84;;;7.26;100.00
42859;BME280;28505;56.970;40.998;2022-09-27T22:58:29;99445.91;;;7.24;100.00
42859;BME280;28505;56.970;40.998;2022-09-27T23:03:52;99452.47;;;7.37;100.00
42859;BME280;28505;56.970;40.998;2022-09-27T23:09:15;99464.41;;;7.49;100.00
42859;BME280;28505;56.970;40.998;2022-09-27T23:14:40;99402.25;;;7.18;100.00
42859;BME280;28505;56.970;40.998;2022-09-27T23:20:03;99437.59;;;7.49;100.00
42859;BME280;28505;56.970;40.998;2022-09-27T23:25:25;99420.97;;;7.47;100.00
42859;BME280;28505;56.970;40.998;2022-09-27T23:30:47;99445.19;;;7.66;100.00
42859;BME280;28505;56.970;40.998;2022-09-27T23:36:12;99436.63;;;7.64;100.00
42859;BME280;28505;56.970;40.998;2022-09-27T23:41:38;99350.19;;;7.24;100.00
42859;BME280;28505;56.970;40.998;2022-09-27T23:47:01;99394.47;;;7.65;100.00
42859;BME280;28505;56.970;40.998;2022-09-27T23:52:25;99378.97;;;7.62;100.00
42859;BME280;28505;56.970;40.998;2022-09-27T23:57:47;99368.75;;;7.64;100.00
